Conception Harbour, Canada
Current Conditions -  °F | °C
As of 12:00 AM on Thursday 23 Oct 2014 (Local Time) from CYYT Reporting Station
Broken Clouds Broken Clouds  
Wind Chill: 39°   Ceiling: 23000
Heat Index: 39°   Visibility: 15mi
Dew Point: 37°   Wind: 3mph
Humidity: 93%   Direction: 110°ESE
Pressure: 30.46"   Gusts: NA
Location:  47.43°N, 53.22°W
Report Text: CYYT 230200Z 11003KT 15SM FEW015 BKN230 04/03 A3046 RMK SC1CI5 SLP318
Loading
Personal Weather Stations






























Interactive Weather Map
Tropical Storm Tracking
New forecast layout! Learn more

10-Day Weather Forecast

Advertisements
Track Severe Weather on mobile